createdAt,value
2018-01-06T00:00:25.114Z,21.7
2018-01-06T00:01:28.373Z,23.9
2018-01-06T00:02:30.228Z,26.8
2018-01-06T00:03:32.047Z,29.6
2018-01-06T00:04:34.644Z,28.9
2018-01-06T00:05:36.427Z,33.5
2018-01-06T00:06:38.283Z,31.1
2018-01-06T00:07:40.206Z,27.1
2018-01-06T00:08:42.026Z,24.3
2018-01-06T00:09:43.859Z,23.2
2018-01-06T00:10:45.714Z,24.3
2018-01-06T00:11:48.628Z,19.3
2018-01-06T00:12:50.884Z,23.7
2018-01-06T00:13:52.687Z,27.7
2018-01-06T00:14:54.492Z,28.5
2018-01-06T00:15:56.365Z,20.5
2018-01-06T00:16:58.132Z,24.1
2018-01-06T00:17:59.920Z,22.5
2018-01-06T00:19:02.125Z,23.5
2018-01-06T00:20:11.461Z,25.8
2018-01-06T00:21:13.316Z,23.1
2018-01-06T00:22:16.364Z,21.9
2018-01-06T00:23:18.299Z,23.0
2018-01-06T00:24:25.335Z,20.9
2018-01-06T00:25:36.713Z,29.3
2018-01-06T00:26:41.222Z,20.1
2018-01-06T00:27:43.056Z,25.7
2018-01-06T00:28:54.509Z,18.6
2018-01-06T00:29:58.137Z,25.6
2018-01-06T00:31:12.347Z,23.5
2018-01-06T00:32:13.734Z,26.9
2018-01-06T00:33:18.066Z,24.7
2018-01-06T00:34:20.011Z,23.8
2018-01-06T00:35:23.239Z,24.5
2018-01-06T00:36:26.598Z,22.3
2018-01-06T00:37:28.496Z,19.8
2018-01-06T00:38:35.028Z,29.1
2018-01-06T00:39:39.672Z,24.9
2018-01-06T00:40:41.613Z,23.9
2018-01-06T00:41:45.504Z,32.1
2018-01-06T00:42:48.318Z,25.2
2018-01-06T00:43:50.589Z,22.7
2018-01-06T00:44:52.501Z,19.7
2018-01-06T00:45:56.630Z,21.4
2018-01-06T00:47:02.356Z,22.2
2018-01-06T00:48:05.443Z,21.3
2018-01-06T00:49:27.517Z,23.5
2018-01-06T00:50:29.388Z,18.5
2018-01-06T00:51:34.163Z,21.8
2018-01-06T00:52:36.161Z,25.2
2018-01-06T00:53:41.324Z,24.1
2018-01-06T00:54:46.292Z,22.0
2018-01-06T00:55:48.282Z,21.1
2018-01-06T00:56:52.833Z,21.8
2018-01-06T00:57:54.716Z,18.6
2018-01-06T00:59:15.403Z,22.4
2018-01-06T01:00:18.673Z,27.9
2018-01-06T01:01:24.502Z,33.9
2018-01-06T01:02:28.175Z,21.3
2018-01-06T01:03:30.070Z,27.4
2018-01-06T01:04:32.670Z,20.9
2018-01-06T01:05:34.611Z,25.7
2018-01-06T01:06:36.660Z,27.9
2018-01-06T01:07:40.996Z,19.1
2018-01-06T01:08:42.816Z,18.7
2018-01-06T01:09:44.646Z,25.2
2018-01-06T01:10:46.581Z,22.7
2018-01-06T01:11:49.608Z,25.6
2018-01-06T01:12:53.150Z,19.6
2018-01-06T01:13:55.855Z,20.9
2018-01-06T01:15:00.951Z,22.0
2018-01-06T01:16:06.729Z,15.0
2018-01-06T01:17:08.969Z,17.5
2018-01-06T01:19:03.146Z,22.3
2018-01-06T01:22:58.425Z,21.6
2018-01-06T01:24:01.814Z,23.7
2018-01-06T01:25:07.881Z,23.9
2018-01-06T01:26:10.275Z,20.4
2018-01-06T01:27:15.177Z,22.4
2018-01-06T01:28:17.079Z,23.5
2018-01-06T01:36:16.980Z,19.9
2018-01-06T01:37:18.777Z,20.1
2018-01-06T01:38:20.423Z,23.9
2018-01-06T01:39:31.077Z,16.6
2018-01-06T01:40:58.662Z,23.5
2018-01-06T01:42:15.616Z,19.6
2018-01-06T01:43:24.921Z,19.5
2018-01-06T01:44:26.731Z,21.4
2018-01-06T01:45:35.388Z,17.6
2018-01-06T01:46:45.421Z,19.7
2018-01-06T01:47:47.233Z,20.1
2018-01-06T01:51:32.042Z,28.1
2018-01-06T01:53:00.337Z,25.6
2018-01-06T01:54:10.324Z,22.6
2018-01-06T01:55:40.745Z,18.8
2018-01-06T01:56:42.530Z,19.1
2018-01-06T01:57:44.327Z,20.0
2018-01-06T01:58:46.087Z,20.6
2018-01-06T01:59:48.119Z,21.6
2018-01-06T02:00:50.370Z,19.7
2018-01-06T02:12:24.975Z,15.8
2018-01-06T02:13:26.817Z,18.0
2018-01-06T02:14:28.550Z,16.7
2018-01-06T02:16:14.533Z,20.7
2018-01-06T02:17:16.298Z,16.5
2018-01-06T02:18:19.139Z,24.3
2018-01-06T02:19:20.879Z,21.2
2018-01-06T02:20:22.710Z,18.1
2018-01-06T02:21:24.472Z,15.0
2018-01-06T02:22:26.350Z,17.8
2018-01-06T02:23:28.098Z,17.4
2018-01-06T02:24:29.876Z,20.2
2018-01-06T02:25:31.742Z,19.5
2018-01-06T02:26:33.582Z,17.5
2018-01-06T02:27:35.377Z,18.2
2018-01-06T02:28:37.150Z,25.1
2018-01-06T02:29:39.616Z,20.0
2018-01-06T02:30:41.444Z,18.5
2018-01-06T02:31:43.269Z,21.8
2018-01-06T02:32:45.097Z,23.1
2018-01-06T02:33:46.914Z,29.0
2018-01-06T02:34:48.769Z,23.2
2018-01-06T02:35:50.581Z,31.0
2018-01-06T02:36:52.573Z,27.0
2018-01-06T02:37:54.450Z,26.6
2018-01-06T02:38:56.317Z,30.1
2018-01-06T02:39:58.202Z,23.5
2018-01-06T02:41:00.138Z,24.8
2018-01-06T02:42:01.989Z,21.4
2018-01-06T02:43:03.874Z,35.4
2018-01-06T02:44:05.802Z,33.2
2018-01-06T02:45:07.764Z,32.5
2018-01-06T02:46:09.689Z,55.3
2018-01-06T02:47:11.616Z,36.5
2018-01-06T02:48:13.617Z,38.9
2018-01-06T02:49:15.592Z,32.2
2018-01-06T02:50:17.611Z,37.6
2018-01-06T02:51:19.506Z,43.5
2018-01-06T02:52:21.486Z,37.5
2018-01-06T02:53:23.400Z,49.0
2018-01-06T02:54:25.320Z,50.0
2018-01-06T03:01:02.997Z,21.1
2018-01-06T03:02:04.741Z,15.9
2018-01-06T03:03:06.464Z,27.2
2018-01-06T03:04:08.423Z,27.3
2018-01-06T03:05:10.414Z,32.5
2018-01-06T03:06:12.356Z,35.3
2018-01-06T03:07:14.353Z,38.8
2018-01-06T03:08:16.383Z,57.0
2018-01-06T03:09:18.359Z,48.9
2018-01-06T03:10:20.335Z,48.3
2018-01-06T03:11:22.322Z,36.2
2018-01-06T03:12:24.330Z,37.0
2018-01-06T03:13:26.231Z,34.7
2018-01-06T03:14:28.224Z,31.6
2018-01-06T03:15:30.173Z,29.4
2018-01-06T03:16:32.146Z,30.3
2018-01-06T03:17:34.114Z,29.2
2018-01-06T03:18:36.099Z,28.1
2018-01-06T03:19:38.050Z,28.6
2018-01-06T03:20:40.070Z,30.5
2018-01-06T03:21:42.074Z,25.5
2018-01-06T03:22:43.978Z,27.6
2018-01-06T03:23:46.006Z,33.3
2018-01-06T03:24:47.962Z,29.9
2018-01-06T03:25:50.009Z,25.3
2018-01-06T03:26:52.000Z,22.1
2018-01-06T03:27:53.981Z,27.3
2018-01-06T03:28:56.003Z,25.3
2018-01-06T03:29:57.968Z,28.4
2018-01-06T03:30:59.897Z,23.1
2018-01-06T03:32:01.886Z,35.8
2018-01-06T03:33:03.864Z,45.2
2018-01-06T03:34:05.830Z,45.4
2018-01-06T03:35:07.760Z,33.4
2018-01-06T03:36:09.680Z,44.3
2018-01-06T03:37:11.723Z,45.3
2018-01-06T03:38:13.706Z,26.2
2018-01-06T03:39:15.675Z,29.3
2018-01-06T03:40:17.717Z,39.3
2018-01-06T03:41:19.670Z,34.9
2018-01-06T03:42:21.633Z,37.1
2018-01-06T03:43:23.634Z,34.4
2018-01-06T03:44:25.635Z,31.4
2018-01-06T03:45:27.592Z,42.6
2018-01-06T03:46:29.484Z,41.1
2018-01-06T03:47:31.457Z,49.2
2018-01-06T03:48:33.388Z,39.2
2018-01-06T03:49:35.263Z,87.7
2018-01-06T03:50:37.187Z,73.6
2018-01-06T03:51:39.126Z,29.8
2018-01-06T03:52:41.046Z,28.0
2018-01-06T03:53:43.005Z,28.5
2018-01-06T03:54:44.988Z,28.4
2018-01-06T03:55:46.939Z,30.9
2018-01-06T03:56:48.911Z,26.7
2018-01-06T03:57:50.946Z,27.3
2018-01-06T03:58:52.923Z,24.1
2018-01-06T03:59:54.912Z,26.0
2018-01-06T04:00:56.971Z,25.9
2018-01-06T04:01:58.997Z,46.6
2018-01-06T04:03:01.016Z,39.1
2018-01-06T04:04:02.952Z,45.7
2018-01-06T04:05:04.864Z,92.1
2018-01-06T04:06:06.830Z,85.2
2018-01-06T04:07:08.823Z,51.9
2018-01-06T04:08:10.861Z,47.7
2018-01-06T04:09:12.814Z,38.8
2018-01-06T04:10:14.820Z,38.3
2018-01-06T04:11:16.742Z,42.4
2018-01-06T04:12:18.694Z,31.6
2018-01-06T04:13:20.649Z,32.8
2018-01-06T04:14:22.553Z,42.2
2018-01-06T04:15:24.543Z,31.6
2018-01-06T04:16:26.539Z,41.4
2018-01-06T04:17:28.429Z,31.9
2018-01-06T04:18:30.429Z,33.7
2018-01-06T04:19:32.354Z,27.1
2018-01-06T04:20:34.261Z,35.2
2018-01-06T04:21:36.234Z,30.4
2018-01-06T04:22:38.203Z,31.4
2018-01-06T04:23:40.220Z,28.5
2018-01-06T04:24:42.162Z,27.1
2018-01-06T04:25:44.122Z,30.7
2018-01-06T04:26:46.036Z,28.2
2018-01-06T04:27:47.946Z,31.9
2018-01-06T04:28:49.954Z,33.3
2018-01-06T04:29:51.840Z,32.9
2018-01-06T04:30:53.781Z,32.8
2018-01-06T04:31:55.762Z,32.8
2018-01-06T04:32:57.674Z,33.0
2018-01-06T04:33:59.589Z,27.7
2018-01-06T04:35:01.525Z,40.7
2018-01-06T04:36:03.496Z,34.9
2018-01-06T04:37:05.427Z,38.6
2018-01-06T04:38:07.383Z,40.0
2018-01-06T04:39:09.281Z,40.7
2018-01-06T04:40:11.256Z,27.7
2018-01-06T04:41:13.172Z,27.2
2018-01-06T04:42:15.136Z,27.0
2018-01-06T04:43:17.090Z,32.2
2018-01-06T04:44:18.981Z,48.9
2018-01-06T04:45:20.897Z,40.3
2018-01-06T04:46:22.917Z,39.0
2018-01-06T04:47:24.906Z,33.3
2018-01-06T04:48:26.851Z,47.2
2018-01-06T04:49:28.805Z,37.8
2018-01-06T04:50:30.747Z,47.1
2018-01-06T04:51:32.647Z,44.4
2018-01-06T04:52:34.717Z,40.7
2018-01-06T04:53:36.692Z,38.7
2018-01-06T04:54:38.708Z,30.3
2018-01-06T04:55:40.694Z,40.5
2018-01-06T04:56:42.767Z,40.8
2018-01-06T04:57:44.718Z,45.2
2018-01-06T04:58:46.717Z,206.7
2018-01-06T04:59:48.699Z,97.4
2018-01-06T05:00:50.631Z,55.7
2018-01-06T05:01:52.740Z,41.4
2018-01-06T05:02:54.703Z,50.2
2018-01-06T05:03:56.648Z,45.6
2018-01-06T05:04:58.601Z,45.3
2018-01-06T05:06:00.589Z,41.4
2018-01-06T05:07:02.508Z,35.0
2018-01-06T05:08:04.409Z,55.9
2018-01-06T05:09:06.461Z,31.4
2018-01-06T05:10:08.430Z,68.4
2018-01-06T05:11:10.382Z,30.3
2018-01-06T05:12:12.308Z,49.9
2018-01-06T05:13:14.302Z,43.6
2018-01-06T05:14:16.208Z,68.8
2018-01-06T05:15:18.243Z,36.4
2018-01-06T05:16:20.213Z,35.9
2018-01-06T05:17:22.129Z,167.2
2018-01-06T05:19:37.416Z,33.8
2018-01-06T05:20:39.287Z,28.9
2018-01-06T05:21:41.457Z,25.4
2018-01-06T05:22:43.297Z,35.5
2018-01-06T05:23:45.242Z,35.5
2018-01-06T05:24:47.580Z,28.7
2018-01-06T05:25:50.346Z,33.6
2018-01-06T05:26:52.382Z,177.4
2018-01-06T05:27:54.183Z,32.1
2018-01-06T05:28:56.029Z,27.9
2018-01-06T05:29:57.825Z,27.3
2018-01-06T05:31:00.241Z,24.7
2018-01-06T05:32:01.961Z,30.0
2018-01-06T05:33:03.722Z,37.5
2018-01-06T05:34:05.499Z,30.4
2018-01-06T05:35:07.217Z,102.9
2018-01-06T05:36:08.888Z,96.5
2018-01-06T05:37:10.646Z,38.1
2018-01-06T05:38:12.372Z,42.8
2018-01-06T05:39:14.064Z,23.9
2018-01-06T05:40:15.767Z,27.0
2018-01-06T05:41:17.455Z,28.4
2018-01-06T05:42:19.205Z,54.3
2018-01-06T05:43:20.885Z,36.1
2018-01-06T05:44:22.559Z,27.8
2018-01-06T05:45:24.272Z,30.4
2018-01-06T05:46:25.950Z,29.4
2018-01-06T05:47:27.650Z,28.0
2018-01-06T05:48:29.313Z,27.7
2018-01-06T05:49:31.050Z,51.4
2018-01-06T05:50:32.703Z,23.2
2018-01-06T05:51:34.368Z,34.1
2018-01-06T05:52:36.142Z,27.0
2018-01-06T05:53:37.910Z,34.3
2018-01-06T05:54:39.748Z,29.8
2018-01-06T05:55:41.517Z,29.8
2018-01-06T05:56:43.241Z,22.4
2018-01-06T05:57:44.886Z,21.5
2018-01-06T05:58:46.568Z,22.7
2018-01-06T05:59:48.248Z,31.2
2018-01-06T06:00:49.934Z,21.6
2018-01-06T06:01:51.608Z,26.5
2018-01-06T06:02:53.353Z,23.6
2018-01-06T06:03:55.082Z,21.5
2018-01-06T06:04:56.783Z,17.9
2018-01-06T06:05:58.567Z,17.3
2018-01-06T06:07:00.295Z,20.1
2018-01-06T06:08:02.000Z,21.7
2018-01-06T06:09:03.753Z,22.2
2018-01-06T06:10:05.446Z,21.2
2018-01-06T06:11:07.158Z,16.2
2018-01-06T06:12:08.895Z,17.7
2018-01-06T06:13:10.662Z,18.3
2018-01-06T06:14:12.354Z,17.5
2018-01-06T06:15:14.116Z,27.8
2018-01-06T06:16:15.845Z,24.7
2018-01-06T06:17:17.560Z,21.7
2018-01-06T06:18:19.305Z,19.2
2018-01-06T06:19:21.090Z,23.9
2018-01-06T06:20:22.798Z,18.3
2018-01-06T06:21:24.512Z,27.7
2018-01-06T06:22:26.271Z,19.7
2018-01-06T06:23:28.050Z,22.1
2018-01-06T06:24:29.760Z,22.9
2018-01-06T06:25:31.461Z,19.0
2018-01-06T06:26:33.208Z,20.7
2018-01-06T06:27:34.955Z,20.6
2018-01-06T06:28:36.689Z,15.6
2018-01-06T06:29:38.460Z,15.1
2018-01-06T06:30:40.194Z,13.5
2018-01-06T06:31:41.924Z,18.1
2018-01-06T06:32:43.640Z,14.2
2018-01-06T06:33:45.357Z,13.8
2018-01-06T06:34:47.126Z,17.3
2018-01-06T06:35:48.907Z,18.6
2018-01-06T06:36:50.640Z,13.5
2018-01-06T06:37:52.402Z,13.2
2018-01-06T06:38:54.161Z,18.0
2018-01-06T06:39:55.848Z,15.6
2018-01-06T06:40:57.575Z,10.1
2018-01-06T06:41:59.374Z,12.4
2018-01-06T06:43:01.114Z,13.0
2018-01-06T06:44:02.841Z,13.7
2018-01-06T06:45:04.637Z,15.3
2018-01-06T06:46:06.327Z,17.4
2018-01-06T06:47:08.735Z,12.7
2018-01-06T06:48:10.395Z,14.2
2018-01-06T06:49:12.083Z,13.3
2018-01-06T06:50:13.799Z,18.0
2018-01-06T06:51:15.467Z,16.3
2018-01-06T06:52:17.147Z,14.1
2018-01-06T06:53:18.823Z,15.3
2018-01-06T06:54:20.507Z,12.7
2018-01-06T06:55:22.179Z,9.4
2018-01-06T07:01:52.678Z,16.4
2018-01-06T07:02:54.315Z,12.6
2018-01-06T07:03:55.961Z,12.5
2018-01-06T07:04:57.633Z,11.6
2018-01-06T07:05:59.277Z,17.1
2018-01-06T07:07:00.921Z,16.6
2018-01-06T07:08:02.571Z,12.0
2018-01-06T07:09:04.224Z,15.0
2018-01-06T07:10:05.862Z,12.2
2018-01-06T07:11:07.500Z,14.3
2018-01-06T07:12:09.148Z,15.2
2018-01-06T07:13:11.119Z,13.9
2018-01-06T07:14:12.767Z,13.8
2018-01-06T07:15:14.416Z,16.8
2018-01-06T07:16:16.066Z,14.3
2018-01-06T07:17:17.716Z,13.6
2018-01-06T07:18:19.353Z,11.1
2018-01-06T07:19:21.004Z,15.9
2018-01-06T07:20:22.657Z,16.5
2018-01-06T07:21:24.304Z,11.9
2018-01-06T07:22:25.965Z,10.7
2018-01-06T07:23:27.609Z,10.0
2018-01-06T07:24:29.257Z,11.6
2018-01-06T07:25:30.898Z,13.4
2018-01-06T07:26:32.545Z,11.4
2018-01-06T07:27:34.182Z,11.8
2018-01-06T07:28:35.836Z,12.6
2018-01-06T07:29:37.481Z,14.7
2018-01-06T07:30:39.126Z,13.9
2018-01-06T07:31:40.768Z,14.3
2018-01-06T07:32:42.421Z,17.3
2018-01-06T07:33:44.060Z,18.9
2018-01-06T07:34:45.713Z,16.2
2018-01-06T07:35:47.359Z,15.1
2018-01-06T07:36:49.007Z,13.4
2018-01-06T07:37:50.649Z,17.3
2018-01-06T07:38:52.308Z,19.4
2018-01-06T07:39:53.959Z,16.9
2018-01-06T07:40:55.617Z,14.6
2018-01-06T07:41:57.270Z,19.6
2018-01-06T07:42:58.913Z,16.4
2018-01-06T07:44:00.571Z,17.8
2018-01-06T07:45:02.223Z,14.9
2018-01-06T07:46:03.871Z,17.7
2018-01-06T07:47:05.519Z,15.1
2018-01-06T07:48:07.162Z,15.5
2018-01-06T07:49:08.818Z,13.7
2018-01-06T07:50:10.460Z,16.8
2018-01-06T07:51:12.116Z,17.2
2018-01-06T07:52:13.767Z,17.3
2018-01-06T07:53:15.419Z,15.1
2018-01-06T07:54:17.072Z,18.0
2018-01-06T07:55:18.717Z,13.9
2018-01-06T07:56:20.361Z,14.7
2018-01-06T07:57:22.010Z,18.6
2018-01-06T07:58:23.677Z,15.1
2018-01-06T07:59:25.382Z,15.3
2018-01-06T08:00:27.014Z,18.2
2018-01-06T08:01:28.664Z,16.4
2018-01-06T08:02:30.326Z,14.7
2018-01-06T08:03:31.971Z,14.1
2018-01-06T08:04:33.619Z,15.5
2018-01-06T08:05:35.270Z,12.6
2018-01-06T08:06:36.922Z,18.7
2018-01-06T08:07:38.568Z,14.5
2018-01-06T08:08:40.237Z,18.5
2018-01-06T08:09:41.892Z,17.0
2018-01-06T08:10:43.544Z,17.9
2018-01-06T08:11:45.197Z,18.0
2018-01-06T08:12:46.881Z,19.3
2018-01-06T08:13:48.582Z,13.5
2018-01-06T08:14:50.248Z,14.3
2018-01-06T08:15:51.896Z,14.9
2018-01-06T08:16:53.795Z,14.4
2018-01-06T08:17:55.594Z,12.8
2018-01-06T08:18:57.539Z,9.5
2018-01-06T08:19:59.500Z,14.7
2018-01-06T08:21:01.426Z,13.5
2018-01-06T08:22:03.339Z,13.2
2018-01-06T08:23:05.323Z,15.8
2018-01-06T08:24:07.281Z,13.5
2018-01-06T08:25:09.245Z,17.1
2018-01-06T08:26:11.247Z,17.0
2018-01-06T08:27:13.177Z,12.3
2018-01-06T08:28:15.183Z,14.4
2018-01-06T08:29:17.230Z,15.2
2018-01-06T08:30:19.126Z,15.9
2018-01-06T08:31:21.118Z,11.0
2018-01-06T08:32:23.022Z,16.3
2018-01-06T08:33:25.020Z,13.4
2018-01-06T08:34:26.984Z,13.7
2018-01-06T08:35:29.020Z,13.5
2018-01-06T08:36:30.933Z,14.5
2018-01-06T08:37:32.925Z,11.6
2018-01-06T08:38:34.956Z,15.4
2018-01-06T08:39:36.930Z,12.2
2018-01-06T08:40:38.824Z,15.7
2018-01-06T08:41:40.889Z,13.8
2018-01-06T08:42:42.889Z,16.3
2018-01-06T08:43:44.880Z,14.8
2018-01-06T08:44:46.956Z,13.7
2018-01-06T08:45:48.970Z,13.6
2018-01-06T08:46:51.084Z,12.8
2018-01-06T08:47:53.055Z,16.4
2018-01-06T08:48:55.000Z,12.3
2018-01-06T08:49:57.006Z,16.8
2018-01-06T08:50:58.924Z,14.0
2018-01-06T08:52:00.669Z,19.3
2018-01-06T08:53:02.402Z,19.7
2018-01-06T08:54:04.509Z,16.0
2018-01-06T08:55:06.374Z,14.9
2018-01-06T08:56:08.289Z,15.4
2018-01-06T08:57:10.311Z,18.0
2018-01-06T08:58:12.287Z,16.2
2018-01-06T08:59:14.238Z,17.2
2018-01-06T09:00:16.253Z,15.0
2018-01-06T09:01:18.177Z,14.8
2018-01-06T09:02:20.249Z,18.0
2018-01-06T09:03:22.266Z,15.6
2018-01-06T09:04:25.606Z,15.8
2018-01-06T09:05:27.759Z,16.0
2018-01-06T09:06:29.697Z,13.7
2018-01-06T09:07:31.786Z,18.7
2018-01-06T09:08:33.812Z,19.5
2018-01-06T09:09:36.003Z,21.6
2018-01-06T09:10:37.971Z,22.0
2018-01-06T09:11:40.004Z,15.8
2018-01-06T09:12:42.004Z,14.8
2018-01-06T09:13:45.033Z,20.5
2018-01-06T09:14:48.430Z,20.2
2018-01-06T09:15:50.276Z,18.3
2018-01-06T09:16:52.207Z,20.7
2018-01-06T09:18:25.261Z,17.5
2018-01-06T09:19:28.854Z,19.9
2018-01-06T09:20:37.576Z,22.9
2018-01-06T09:21:38.940Z,25.1
2018-01-06T09:22:41.042Z,23.8
2018-01-06T09:23:43.046Z,26.3
2018-01-06T09:24:45.055Z,23.0
2018-01-06T09:25:47.012Z,19.8
2018-01-06T09:26:49.029Z,19.5
2018-01-06T09:27:51.044Z,14.3
2018-01-06T09:28:53.176Z,20.2
2018-01-06T09:29:55.188Z,19.3
2018-01-06T09:30:57.239Z,25.5
2018-01-06T09:31:59.209Z,20.7
2018-01-06T09:33:01.455Z,22.9
2018-01-06T09:34:03.681Z,23.3
2018-01-06T09:35:06.004Z,20.5
2018-01-06T09:36:08.122Z,17.5
2018-01-06T09:37:09.919Z,20.6
2018-01-06T09:38:12.150Z,17.3
2018-01-06T09:39:14.288Z,17.2
2018-01-06T09:40:16.398Z,20.5
2018-01-06T09:41:18.585Z,16.5
2018-01-06T09:42:20.628Z,16.1
2018-01-06T09:43:22.821Z,15.9
2018-01-06T09:44:24.807Z,15.1
2018-01-06T09:45:26.771Z,18.8
2018-01-06T09:46:29.334Z,21.1
2018-01-06T09:47:32.126Z,21.7
2018-01-06T09:48:34.134Z,23.0
2018-01-06T09:49:36.482Z,19.4
2018-01-06T09:50:38.651Z,18.0
2018-01-06T09:51:40.743Z,19.8
2018-01-06T09:52:43.647Z,19.9
2018-01-06T09:53:45.842Z,20.7
2018-01-06T09:54:47.925Z,17.4
2018-01-06T09:55:50.007Z,19.0
2018-01-06T09:57:12.887Z,19.4
2018-01-06T09:58:22.791Z,18.2
2018-01-06T09:59:24.932Z,18.2
2018-01-06T10:00:27.140Z,21.3
2018-01-06T10:01:29.223Z,19.6
2018-01-06T10:02:31.162Z,20.8
2018-01-06T10:03:33.594Z,23.1
2018-01-06T10:04:37.917Z,19.3
2018-01-06T10:05:39.741Z,23.3
2018-01-06T10:06:41.945Z,23.7
2018-01-06T10:07:43.958Z,24.4
2018-01-06T10:08:45.836Z,21.3
2018-01-06T10:09:47.774Z,23.5
2018-01-06T10:10:50.192Z,23.3
2018-01-06T10:11:52.435Z,24.9
2018-01-06T10:12:54.858Z,22.0
2018-01-06T10:13:57.485Z,16.7
2018-01-06T10:14:59.371Z,20.5
2018-01-06T10:16:01.281Z,23.3
2018-01-06T10:17:03.224Z,20.7
2018-01-06T10:18:05.131Z,20.5
2018-01-06T10:19:07.032Z,21.8
2018-01-06T10:20:09.112Z,23.6
2018-01-06T10:21:11.090Z,22.2
2018-01-06T10:22:13.006Z,24.0
2018-01-06T10:23:14.858Z,25.7
2018-01-06T10:24:16.777Z,20.1
2018-01-06T10:25:18.777Z,21.4
2018-01-06T10:26:20.651Z,23.8
2018-01-06T10:27:23.415Z,20.9
2018-01-06T10:28:25.318Z,26.6
2018-01-06T10:29:27.956Z,24.6
2018-01-06T10:30:30.527Z,27.2
2018-01-06T10:31:32.418Z,23.8
2018-01-06T10:32:37.013Z,22.7
2018-01-06T10:33:38.940Z,22.7
2018-01-06T10:34:40.823Z,21.5
2018-01-06T10:35:43.752Z,21.9
2018-01-06T10:36:45.818Z,20.4
2018-01-06T10:37:53.316Z,22.8
2018-01-06T10:38:55.373Z,22.1
2018-01-06T10:39:59.517Z,17.4
2018-01-06T10:41:01.933Z,22.5
2018-01-06T10:42:04.630Z,20.3
2018-01-06T10:43:06.828Z,22.4
2018-01-06T10:44:09.298Z,23.8
2018-01-06T10:45:11.347Z,23.0
2018-01-06T10:46:13.446Z,23.0
2018-01-06T10:47:15.777Z,23.1
2018-01-06T10:48:17.984Z,23.5
2018-01-06T10:49:20.243Z,21.8
2018-01-06T10:50:25.265Z,23.2
2018-01-06T10:51:27.330Z,21.1
2018-01-06T10:52:29.330Z,23.4
2018-01-06T10:54:43.291Z,28.4
2018-01-06T11:01:26.506Z,19.9
2018-01-06T11:02:28.345Z,21.0
2018-01-06T11:03:30.106Z,22.1
2018-01-06T11:04:32.050Z,26.0
2018-01-06T11:05:33.963Z,27.0
2018-01-06T11:06:35.860Z,22.7
2018-01-06T11:07:39.473Z,23.4
2018-01-06T11:08:44.081Z,20.2
2018-01-06T11:09:46.248Z,24.1
2018-01-06T11:10:49.440Z,16.5
2018-01-06T11:11:55.648Z,21.7
2018-01-06T11:12:58.737Z,24.0
2018-01-06T11:14:01.074Z,29.5
2018-01-06T11:15:06.335Z,34.6
2018-01-06T11:16:09.665Z,23.9
2018-01-06T11:17:13.963Z,21.8
2018-01-06T11:18:16.041Z,21.2
2018-01-06T11:19:18.407Z,22.7
2018-01-06T11:20:20.784Z,22.4
2018-01-06T11:21:23.592Z,20.8
2018-01-06T11:22:25.728Z,22.2
2018-01-06T11:23:27.903Z,24.9
2018-01-06T11:24:30.922Z,29.8
2018-01-06T11:25:33.019Z,32.7
2018-01-06T11:26:35.536Z,33.5
2018-01-06T11:27:39.482Z,41.7
2018-01-06T11:28:42.195Z,40.3
2018-01-06T11:29:44.339Z,33.5
2018-01-06T11:30:48.263Z,34.4
2018-01-06T11:31:50.382Z,35.6
2018-01-06T11:32:52.459Z,37.2
2018-01-06T11:33:54.995Z,35.7
2018-01-06T11:34:57.209Z,32.7
2018-01-06T11:36:00.104Z,32.3
2018-01-06T11:37:02.900Z,32.8
2018-01-06T11:38:06.708Z,30.6
2018-01-06T11:39:09.375Z,39.1
2018-01-06T11:40:13.215Z,35.2
2018-01-06T11:41:15.563Z,37.6
2018-01-06T11:42:18.247Z,39.5
2018-01-06T11:43:21.008Z,42.7
2018-01-06T11:44:23.789Z,38.4
2018-01-06T11:45:26.310Z,33.0
2018-01-06T11:46:28.686Z,33.7
2018-01-06T11:47:31.081Z,36.6
2018-01-06T11:48:33.920Z,33.9
2018-01-06T11:49:36.707Z,37.3
2018-01-06T11:50:40.191Z,36.2
2018-01-06T11:51:44.744Z,37.9
2018-01-06T11:52:47.730Z,32.4
2018-01-06T11:53:50.127Z,38.2
2018-01-06T11:54:52.392Z,69.8
2018-01-06T11:55:54.722Z,78.0
2018-01-06T11:56:58.596Z,54.6
2018-01-06T11:58:01.228Z,45.9
2018-01-06T11:59:07.591Z,41.9
2018-01-06T12:00:11.440Z,36.1
2018-01-06T12:01:14.120Z,36.8
2018-01-06T12:02:16.121Z,36.6
2018-01-06T12:03:18.864Z,60.4
2018-01-06T12:04:24.555Z,60.5
2018-01-06T12:05:26.995Z,165.8
2018-01-06T12:06:30.127Z,148.6
2018-01-06T12:07:32.620Z,125.5
2018-01-06T12:08:34.724Z,49.3
2018-01-06T12:09:37.013Z,38.3
2018-01-06T12:10:40.019Z,41.0
2018-01-06T12:11:43.130Z,32.2
2018-01-06T12:12:47.904Z,30.4
2018-01-06T12:13:52.246Z,25.7
2018-01-06T12:14:54.423Z,27.6
2018-01-06T12:15:58.378Z,31.3
2018-01-06T12:17:01.276Z,30.6
2018-01-06T12:18:04.584Z,27.0
2018-01-06T12:19:06.883Z,24.0
2018-01-06T12:20:09.127Z,24.4
2018-01-06T12:21:11.519Z,27.8
2018-01-06T12:22:13.927Z,31.7
2018-01-06T12:23:15.912Z,29.4
2018-01-06T12:24:19.423Z,28.2
2018-01-06T12:25:21.717Z,32.5
2018-01-06T12:26:23.878Z,27.2
2018-01-06T12:27:25.995Z,29.2
2018-01-06T12:28:28.299Z,33.3
2018-01-06T12:29:31.412Z,35.0
2018-01-06T12:30:33.740Z,30.1
2018-01-06T12:31:35.914Z,31.0
2018-01-06T12:32:39.678Z,30.4
2018-01-06T12:33:41.561Z,32.0
2018-01-06T12:34:43.508Z,29.7
2018-01-06T12:35:46.528Z,34.7
2018-01-06T12:36:48.938Z,33.2
2018-01-06T12:37:50.950Z,35.7
2018-01-06T12:38:52.882Z,37.1
2018-01-06T12:39:55.451Z,33.8
2018-01-06T12:40:58.335Z,30.9
2018-01-06T12:42:00.321Z,32.5
2018-01-06T12:43:02.483Z,28.5
2018-01-06T12:44:04.450Z,30.4
2018-01-06T12:45:06.545Z,29.5
2018-01-06T12:46:08.533Z,27.2
2018-01-06T12:47:10.491Z,28.3
2018-01-06T12:48:12.393Z,30.1
2018-01-06T12:49:14.422Z,35.3
2018-01-06T12:50:16.359Z,35.8
2018-01-06T12:51:18.368Z,38.5
2018-01-06T12:52:20.364Z,39.0
2018-01-06T12:53:22.309Z,36.6
2018-01-06T12:54:24.236Z,36.6
2018-01-06T12:55:26.231Z,34.7
2018-01-06T12:56:28.196Z,39.1
2018-01-06T12:57:30.115Z,38.7
2018-01-06T12:58:32.095Z,39.0
2018-01-06T12:59:34.027Z,34.5
2018-01-06T13:00:36.003Z,34.0
2018-01-06T13:01:38.363Z,35.0
2018-01-06T13:02:40.421Z,29.4
2018-01-06T13:03:42.378Z,33.8
2018-01-06T13:04:44.353Z,25.1
2018-01-06T13:05:47.092Z,29.3
2018-01-06T13:06:49.137Z,31.0
2018-01-06T13:07:51.213Z,31.6
2018-01-06T13:08:53.274Z,32.7
2018-01-06T13:09:55.821Z,30.1
2018-01-06T13:10:57.875Z,28.3
2018-01-06T13:11:59.977Z,27.7
2018-01-06T13:13:01.990Z,27.3
2018-01-06T13:14:04.002Z,26.9
2018-01-06T13:15:06.000Z,26.8
2018-01-06T13:16:08.024Z,28.2
2018-01-06T13:17:09.994Z,23.1
2018-01-06T13:18:12.049Z,24.4
2018-01-06T13:19:14.103Z,26.1
2018-01-06T13:20:16.310Z,23.5
2018-01-06T13:21:18.298Z,22.6
2018-01-06T13:22:22.325Z,25.4
2018-01-06T13:23:24.809Z,27.6
2018-01-06T13:24:26.818Z,25.7
2018-01-06T13:25:28.803Z,32.4
2018-01-06T13:26:30.912Z,51.2
2018-01-06T13:27:32.980Z,69.4
2018-01-06T13:28:36.793Z,71.1
2018-01-06T13:29:39.003Z,66.3
2018-01-06T13:30:41.012Z,59.5
2018-01-06T13:31:43.196Z,54.3
2018-01-06T13:32:45.322Z,51.0
2018-01-06T13:33:47.356Z,55.0
2018-01-06T13:34:49.377Z,57.5
2018-01-06T13:35:51.500Z,48.6
2018-01-06T13:36:53.498Z,47.4
2018-01-06T13:37:55.445Z,44.3
2018-01-06T13:38:57.424Z,42.4
2018-01-06T13:39:59.715Z,43.2
2018-01-06T13:41:01.907Z,38.3
2018-01-06T13:42:03.997Z,36.0
2018-01-06T13:43:06.381Z,36.7
2018-01-06T13:44:08.786Z,40.4
2018-01-06T13:45:10.803Z,38.4
2018-01-06T13:46:12.804Z,38.5
2018-01-06T13:47:14.857Z,38.6
2018-01-06T13:48:16.845Z,44.5
2018-01-06T13:49:18.989Z,39.1
2018-01-06T13:50:21.098Z,43.2
2018-01-06T13:51:23.175Z,40.8
2018-01-06T13:52:25.229Z,41.1
2018-01-06T13:53:27.309Z,42.4
2018-01-06T13:54:29.287Z,42.7
2018-01-06T13:55:31.292Z,40.5
2018-01-06T13:56:33.226Z,37.0
2018-01-06T13:57:35.289Z,40.5
2018-01-06T13:58:37.284Z,37.5
2018-01-06T13:59:39.314Z,35.8
2018-01-06T14:00:42.288Z,37.6
2018-01-06T14:01:44.295Z,43.8
2018-01-06T14:02:46.349Z,40.2
2018-01-06T14:03:48.236Z,46.6
2018-01-06T14:04:50.223Z,40.8
2018-01-06T14:05:52.264Z,40.1
2018-01-06T14:06:54.434Z,38.7
2018-01-06T14:07:56.969Z,40.4
2018-01-06T14:08:59.710Z,35.5
2018-01-06T14:10:02.673Z,43.8
2018-01-06T14:11:04.634Z,48.1
2018-01-06T14:12:06.791Z,43.4
2018-01-06T14:13:08.877Z,46.0
2018-01-06T14:14:11.119Z,53.5
2018-01-06T14:15:13.760Z,54.0
2018-01-06T14:16:15.986Z,53.9
2018-01-06T14:17:17.995Z,50.2
2018-01-06T14:18:19.979Z,45.5
2018-01-06T14:19:21.951Z,44.1
2018-01-06T14:20:23.998Z,39.4
2018-01-06T14:21:25.911Z,45.2
2018-01-06T14:22:27.914Z,40.3
2018-01-06T14:23:29.892Z,41.9
2018-01-06T14:24:32.278Z,38.4
2018-01-06T14:25:34.035Z,42.2
2018-01-06T14:26:36.045Z,43.3
2018-01-06T14:27:38.070Z,38.7
2018-01-06T14:28:40.045Z,36.7
2018-01-06T14:29:42.111Z,28.8
2018-01-06T14:30:44.180Z,24.6
2018-01-06T14:31:46.340Z,25.3
2018-01-06T14:32:48.557Z,30.2
2018-01-06T14:33:50.731Z,25.7
2018-01-06T14:34:52.815Z,28.1
2018-01-06T14:35:54.880Z,32.2